createdAt,value
2022-08-03T04:02:16.746Z,19.06
2022-08-03T04:05:03.530Z,19.16
2022-08-03T04:08:13.513Z,19.22
2022-08-03T04:11:01.590Z,19.30
2022-08-03T04:13:46.625Z,19.40
2022-08-03T04:16:19.552Z,19.47
2022-08-03T04:18:53.679Z,19.53
2022-08-03T04:21:23.400Z,19.56
2022-08-03T04:23:55.544Z,19.69
2022-08-03T04:26:27.557Z,19.78
2022-08-03T04:28:55.212Z,19.87
2022-08-03T04:31:24.621Z,19.93
2022-08-03T04:33:53.500Z,20.01
2022-08-03T04:36:27.304Z,20.11
2022-08-03T04:39:14.784Z,20.20
2022-08-03T04:42:07.667Z,20.33
2022-08-03T04:44:38.620Z,20.51
2022-08-03T04:47:06.315Z,20.65
2022-08-03T04:49:37.933Z,20.83
2022-08-03T04:52:08.188Z,21.01
2022-08-03T04:54:50.565Z,21.14
2022-08-03T04:57:23.220Z,21.31
2022-08-03T05:00:02.719Z,21.45
2022-08-03T05:02:31.768Z,21.61
2022-08-03T05:04:59.607Z,21.76
2022-08-03T05:07:34.147Z,21.90
2022-08-03T05:10:14.846Z,22.13
2022-08-03T05:12:47.771Z,22.45
2022-08-03T05:15:15.890Z,22.72
2022-08-03T05:17:43.825Z,23.06
2022-08-03T05:20:12.333Z,23.42
2022-08-03T05:22:40.121Z,23.61
2022-08-03T05:25:07.985Z,23.95
2022-08-03T05:27:35.952Z,24.28
2022-08-03T05:30:30.993Z,24.92
2022-08-03T05:32:53.474Z,25.88
2022-08-03T05:36:01.895Z,26.15
2022-08-03T05:38:10.139Z,26.44
2022-08-03T05:40:38.573Z,27.75
2022-08-03T05:43:16.902Z,29.02
2022-08-03T05:45:45.107Z,30.24
2022-08-03T05:48:13.039Z,31.87
2022-08-03T05:50:42.913Z,33.32
2022-08-03T05:53:10.966Z,34.99
2022-08-03T05:55:38.658Z,36.84
2022-08-03T05:58:06.281Z,38.70
2022-08-03T06:00:34.610Z,40.30
2022-08-03T06:03:02.375Z,41.81
2022-08-03T06:05:31.374Z,43.06
2022-08-03T06:07:59.185Z,44.19
2022-08-03T06:10:35.634Z,45.05
2022-08-03T06:13:06.251Z,45.35
2022-08-03T06:15:37.554Z,45.35
2022-08-03T06:18:05.056Z,43.92
2022-08-03T06:20:32.887Z,41.94
2022-08-03T06:23:01.376Z,40.22
2022-08-03T06:25:30.641Z,38.73
2022-08-03T06:27:59.843Z,37.31
2022-08-03T06:30:27.730Z,35.91
2022-08-03T06:32:55.512Z,34.77
2022-08-03T06:35:23.385Z,33.88
2022-08-03T06:37:52.956Z,33.22
2022-08-03T06:40:31.693Z,32.70
2022-08-03T06:43:00.866Z,32.20
2022-08-03T06:45:31.904Z,31.93
2022-08-03T06:48:02.441Z,31.69
2022-08-03T06:50:31.002Z,31.46
2022-08-03T06:53:00.007Z,31.25
2022-08-03T06:55:27.719Z,31.08
2022-08-03T06:57:55.478Z,30.95
2022-08-03T07:00:28.479Z,30.88
2022-08-03T07:02:58.443Z,30.85
2022-08-03T07:05:27.381Z,30.91
2022-08-03T07:07:57.159Z,30.93
2022-08-03T07:10:25.256Z,30.91
2022-08-03T07:12:55.940Z,30.88
2022-08-03T07:15:53.811Z,30.80
2022-08-03T07:18:13.436Z,30.68
2022-08-03T07:20:41.840Z,30.44
2022-08-03T07:23:09.533Z,30.26
2022-08-03T07:25:36.644Z,30.05
2022-08-03T07:28:04.861Z,29.94
2022-08-03T07:30:32.264Z,29.94
2022-08-03T07:32:59.501Z,29.95
2022-08-03T07:35:26.502Z,29.97
2022-08-03T07:37:55.125Z,29.99
2022-08-03T07:40:23.229Z,30.00
2022-08-03T07:42:55.506Z,29.92
2022-08-03T07:45:23.706Z,29.73
2022-08-03T07:47:53.605Z,29.61
2022-08-03T07:50:23.033Z,29.40
2022-08-03T07:52:56.178Z,29.26
2022-08-03T07:55:26.356Z,29.17
2022-08-03T07:58:22.037Z,29.10
2022-08-03T08:00:52.566Z,29.11
2022-08-03T08:03:21.530Z,29.18
2022-08-03T08:05:50.028Z,29.31
2022-08-03T08:08:17.924Z,29.43
2022-08-03T08:10:58.441Z,29.57
2022-08-03T08:13:26.862Z,29.69
2022-08-03T08:15:54.779Z,29.86
2022-08-03T08:18:24.188Z,29.99
2022-08-03T08:20:51.884Z,30.10
2022-08-03T08:23:42.931Z,30.17
2022-08-03T08:26:11.775Z,30.26
2022-08-03T08:28:39.748Z,30.35
2022-08-03T08:31:07.768Z,30.46
2022-08-03T08:34:03.310Z,30.59
2022-08-03T08:36:24.165Z,30.72
2022-08-03T08:38:52.049Z,30.77
2022-08-03T08:41:19.801Z,30.81
2022-08-03T08:43:47.942Z,30.82
2022-08-03T08:46:23.383Z,30.78
2022-08-03T08:48:54.617Z,30.82
2022-08-03T08:51:59.087Z,30.87
2022-08-03T08:54:22.422Z,30.89
2022-08-03T08:56:57.456Z,30.83
2022-08-03T08:59:26.356Z,30.78
2022-08-03T09:02:04.478Z,30.74
2022-08-03T09:04:33.451Z,30.74
2022-08-03T09:07:19.321Z,30.74
2022-08-03T09:10:11.548Z,30.70
2022-08-03T09:12:43.157Z,30.68
2022-08-03T09:15:18.823Z,30.62
2022-08-03T09:17:50.931Z,30.50
2022-08-03T09:20:21.086Z,30.39
2022-08-03T09:22:58.566Z,30.32
2022-08-03T09:25:34.851Z,30.29
2022-08-03T09:28:58.172Z,30.29
2022-08-03T09:31:07.409Z,30.29
2022-08-03T09:33:49.455Z,30.31
2022-08-03T09:36:36.536Z,30.27
2022-08-03T09:39:41.361Z,30.21
2022-08-03T09:42:23.922Z,30.29
2022-08-03T09:44:53.564Z,30.37
2022-08-03T09:47:32.312Z,30.43
2022-08-03T09:50:02.933Z,30.54
2022-08-03T09:52:49.990Z,30.65
2022-08-03T09:56:30.934Z,30.63
2022-08-03T09:58:11.308Z,30.72
2022-08-03T10:00:55.875Z,30.87
2022-08-03T10:03:24.871Z,31.02
2022-08-03T10:05:57.421Z,31.14
2022-08-03T10:08:28.092Z,31.18
2022-08-03T10:10:58.521Z,31.14
2022-08-03T10:13:27.071Z,31.16
2022-08-03T10:16:23.556Z,31.21
2022-08-03T10:18:43.180Z,31.25
2022-08-03T10:21:16.717Z,31.25
2022-08-03T10:23:45.511Z,31.25
2022-08-03T10:26:16.366Z,31.25
2022-08-03T10:28:50.395Z,31.24
2022-08-03T10:31:20.448Z,31.19
2022-08-03T10:33:53.057Z,31.14
2022-08-03T10:36:24.593Z,31.06
2022-08-03T10:38:53.553Z,31.00
2022-08-03T10:41:23.927Z,30.98
2022-08-03T10:44:23.884Z,30.93
2022-08-03T10:46:52.869Z,30.77
2022-08-03T10:49:34.365Z,30.59
2022-08-03T10:52:13.676Z,30.43
2022-08-03T10:55:11.670Z,30.37
2022-08-03T10:57:48.744Z,30.39
2022-08-03T11:00:25.649Z,30.46
2022-08-03T11:03:06.985Z,30.50
2022-08-03T11:05:46.142Z,30.57
2022-08-03T11:08:28.071Z,30.66
2022-08-03T11:10:59.274Z,30.78
2022-08-03T11:13:31.238Z,30.87
2022-08-03T11:16:03.934Z,30.93
2022-08-03T11:18:35.417Z,30.98
2022-08-03T11:21:03.703Z,30.99
2022-08-03T11:24:02.953Z,30.94
2022-08-03T11:26:34.929Z,30.88
2022-08-03T11:29:28.969Z,30.87
2022-08-03T11:31:56.920Z,30.85
2022-08-03T11:34:25.741Z,30.81
2022-08-03T11:37:21.334Z,30.65
2022-08-03T11:39:52.699Z,30.49
2022-08-03T11:42:27.214Z,30.50
2022-08-03T11:44:57.231Z,30.51
2022-08-03T11:47:29.273Z,30.52
2022-08-03T11:50:01.721Z,30.54
2022-08-03T11:52:35.676Z,30.51
2022-08-03T11:55:09.077Z,30.47
2022-08-03T11:59:19.543Z,30.53
2022-08-03T12:00:28.811Z,30.59
2022-08-03T12:02:57.607Z,30.61
2022-08-03T12:05:35.758Z,30.60
2022-08-03T12:08:06.769Z,30.61
2022-08-03T12:10:37.014Z,30.62
2022-08-03T12:14:27.080Z,30.63
2022-08-03T12:15:59.291Z,30.62
2022-08-03T12:18:27.160Z,30.60
2022-08-03T12:21:08.133Z,30.56
2022-08-03T12:23:37.928Z,30.48
2022-08-03T12:26:08.574Z,30.46
2022-08-03T12:28:39.143Z,30.42
2022-08-03T12:31:11.082Z,30.38
2022-08-03T12:33:59.809Z,30.35
2022-08-03T12:36:28.152Z,30.33
2022-08-03T12:39:01.746Z,30.29
2022-08-03T12:41:33.957Z,30.26
2022-08-03T12:44:05.003Z,30.20
2022-08-03T12:46:41.635Z,30.21
2022-08-03T12:49:19.718Z,30.30
2022-08-03T12:51:47.579Z,30.31
2022-08-03T12:54:24.761Z,30.36
2022-08-03T12:57:16.044Z,30.42
2022-08-03T12:59:53.293Z,30.49
2022-08-03T13:02:27.450Z,30.56
2022-08-03T13:04:55.738Z,30.62
2022-08-03T13:07:23.685Z,30.69
2022-08-03T13:09:55.740Z,30.77
2022-08-03T13:12:30.004Z,30.84
2022-08-03T13:15:03.332Z,30.90
2022-08-03T13:17:31.549Z,30.95
2022-08-03T13:19:59.577Z,30.99
2022-08-03T13:22:33.627Z,31.00
2022-08-03T13:25:03.349Z,30.99
2022-08-03T13:28:04.930Z,30.98
2022-08-03T13:30:23.399Z,30.94
2022-08-03T13:33:00.397Z,30.86
2022-08-03T13:35:28.364Z,30.83
2022-08-03T13:37:56.586Z,30.80
2022-08-03T13:40:30.077Z,30.76
2022-08-03T13:42:58.920Z,30.73
2022-08-03T13:45:27.597Z,30.70
2022-08-03T13:47:55.618Z,30.64
2022-08-03T13:50:23.485Z,30.61
2022-08-03T13:52:51.995Z,30.56
2022-08-03T13:55:19.367Z,30.48
2022-08-03T13:58:05.335Z,30.41
2022-08-03T14:00:35.007Z,30.34
2022-08-03T14:03:12.844Z,30.28
2022-08-03T14:05:43.889Z,30.23
2022-08-03T14:08:13.055Z,30.18
2022-08-03T14:10:43.447Z,30.13
2022-08-03T14:13:16.788Z,30.08
2022-08-03T14:15:49.962Z,30.01
2022-08-03T14:18:29.048Z,29.92
2022-08-03T14:21:07.429Z,29.86
2022-08-03T14:23:40.152Z,29.81
2022-08-03T14:26:10.338Z,29.74
2022-08-03T14:28:38.385Z,29.65
2022-08-03T14:31:08.312Z,29.60
2022-08-03T14:33:44.006Z,29.55
2022-08-03T14:36:11.720Z,29.51
2022-08-03T14:38:39.309Z,29.49
2022-08-03T14:41:06.542Z,29.46
2022-08-03T14:43:40.806Z,29.41
2022-08-03T14:46:28.672Z,29.39
2022-08-03T14:50:30.059Z,29.38
2022-08-03T14:51:51.509Z,29.37
2022-08-03T14:54:22.945Z,29.34
2022-08-03T14:56:50.840Z,29.30
2022-08-03T14:59:18.960Z,29.26
2022-08-03T15:02:05.575Z,29.21
2022-08-03T15:04:35.886Z,29.16
2022-08-03T15:07:03.621Z,29.13
2022-08-03T15:09:31.555Z,29.10
2022-08-03T15:11:59.852Z,29.06
2022-08-03T15:14:28.519Z,29.03
2022-08-03T15:17:01.040Z,29.01
2022-08-03T15:20:02.037Z,28.99
2022-08-03T15:22:16.903Z,28.95
2022-08-03T15:24:50.627Z,28.91
2022-08-03T15:27:21.757Z,28.87
2022-08-03T15:30:08.184Z,28.83
2022-08-03T15:32:37.433Z,28.81
2022-08-03T15:35:05.478Z,28.79
2022-08-03T15:37:33.340Z,28.76
2022-08-03T15:40:01.393Z,28.73
2022-08-03T15:42:30.574Z,28.71
2022-08-03T15:44:58.730Z,28.68
2022-08-03T15:47:26.813Z,28.65
2022-08-03T15:49:54.623Z,28.62
2022-08-03T15:52:22.629Z,28.58
2022-08-03T15:54:50.503Z,28.55
2022-08-03T15:57:18.618Z,28.51
2022-08-03T15:59:46.167Z,28.45
2022-08-03T16:02:14.952Z,28.40
2022-08-03T16:04:43.931Z,28.37
2022-08-03T16:07:12.670Z,28.34
2022-08-03T16:09:43.396Z,28.31
2022-08-03T16:12:16.239Z,28.27
2022-08-03T16:14:52.275Z,28.24
2022-08-03T16:17:23.332Z,28.18
2022-08-03T16:19:52.206Z,28.13
2022-08-03T16:22:25.467Z,28.08
2022-08-03T16:24:57.871Z,28.04
2022-08-03T16:27:37.097Z,28.00
2022-08-03T16:30:16.835Z,27.95
2022-08-03T16:32:47.123Z,27.91
2022-08-03T16:35:19.423Z,27.87
2022-08-03T16:37:56.604Z,27.84
2022-08-03T16:40:25.876Z,27.81
2022-08-03T16:42:54.346Z,27.76
2022-08-03T16:45:22.904Z,27.72
2022-08-03T16:48:01.282Z,27.69
2022-08-03T16:50:33.792Z,27.65
2022-08-03T16:53:09.365Z,27.61
2022-08-03T16:55:43.455Z,27.57
2022-08-03T16:58:41.459Z,27.53
2022-08-03T17:01:22.615Z,27.49
2022-08-03T17:04:01.532Z,27.44
2022-08-03T17:06:37.595Z,27.41
2022-08-03T17:09:09.878Z,27.37
2022-08-03T17:11:47.337Z,27.33
2022-08-03T17:14:22.005Z,27.28
2022-08-03T17:16:53.824Z,27.24
2022-08-03T17:19:24.672Z,27.20
2022-08-03T17:22:09.062Z,27.15
2022-08-03T17:24:44.557Z,27.10
2022-08-03T17:28:51.173Z,27.06
2022-08-03T17:30:13.311Z,27.00
2022-08-03T17:32:56.731Z,26.93
2022-08-03T17:35:36.544Z,26.88
2022-08-03T17:38:11.887Z,26.83
2022-08-03T17:40:52.177Z,26.77
2022-08-03T17:44:12.800Z,26.72
2022-08-03T17:46:12.206Z,26.66
2022-08-03T17:48:41.337Z,26.61
2022-08-03T17:51:46.358Z,26.55
2022-08-03T17:54:30.249Z,26.47
2022-08-03T17:57:15.416Z,26.41
2022-08-03T18:00:22.943Z,26.34
2022-08-03T18:03:25.009Z,26.25
2022-08-03T18:06:10.768Z,26.16
2022-08-03T18:08:57.074Z,26.09
2022-08-03T18:11:35.699Z,26.02
2022-08-03T18:14:27.402Z,25.95
2022-08-03T18:17:10.396Z,25.86
2022-08-03T18:20:02.734Z,25.77
2022-08-03T18:22:28.611Z,25.67
2022-08-03T18:25:00.381Z,25.58
2022-08-03T18:27:45.923Z,25.46
2022-08-03T18:30:15.491Z,25.35
2022-08-03T18:32:44.182Z,25.26
2022-08-03T18:35:52.792Z,25.15
2022-08-03T18:38:25.542Z,25.05
2022-08-03T18:40:53.441Z,24.95
2022-08-03T18:43:45.327Z,24.86
2022-08-03T18:46:28.570Z,24.74
2022-08-03T18:49:14.189Z,24.62
2022-08-03T18:55:01.027Z,24.38
2022-08-03T18:57:43.893Z,24.27
2022-08-03T19:00:23.956Z,24.16
2022-08-03T19:03:01.843Z,24.07
2022-08-03T19:05:52.993Z,24.00
2022-08-03T19:08:29.094Z,23.91
2022-08-03T19:11:06.049Z,23.83
2022-08-03T19:13:50.229Z,23.77
2022-08-03T19:16:31.031Z,23.69
2022-08-03T19:19:27.826Z,23.62
2022-08-03T19:22:16.300Z,23.53
2022-08-03T19:24:48.854Z,23.41
2022-08-03T19:27:19.283Z,23.30
2022-08-03T19:30:00.662Z,23.21
2022-08-03T19:32:32.331Z,23.12
2022-08-03T19:35:03.686Z,22.95
2022-08-03T19:40:20.470Z,22.72
2022-08-03T19:43:00.751Z,22.68
2022-08-03T19:46:04.863Z,22.63
2022-08-03T19:48:33.002Z,22.59
2022-08-03T19:51:12.540Z,22.57
2022-08-03T19:53:45.162Z,22.55
2022-08-03T19:56:15.462Z,22.49
2022-08-03T19:58:43.453Z,22.41
2022-08-03T20:01:19.358Z,22.37
2022-08-03T20:03:51.714Z,22.34
2022-08-03T20:06:23.769Z,22.31
2022-08-03T20:08:53.741Z,22.30
2022-08-03T20:11:28.838Z,22.29
2022-08-03T20:13:58.399Z,22.22
2022-08-03T20:16:26.346Z,22.19
2022-08-03T20:18:54.174Z,22.16
2022-08-03T20:21:26.779Z,22.11
2022-08-03T20:24:02.952Z,22.04
2022-08-03T20:26:54.157Z,21.92
2022-08-03T20:32:24.364Z,21.81
2022-08-03T20:34:53.017Z,21.76
2022-08-03T20:37:20.630Z,21.75
2022-08-03T20:39:49.515Z,21.75
2022-08-03T20:42:36.104Z,21.71
2022-08-03T20:45:05.695Z,21.65
2022-08-03T20:47:35.719Z,21.60
2022-08-03T20:50:04.536Z,21.58
2022-08-03T20:52:49.384Z,21.59
2022-08-03T20:55:18.720Z,21.61
2022-08-03T20:57:51.591Z,21.62
2022-08-03T21:00:19.064Z,21.55
2022-08-03T21:13:00.575Z,24.49
2022-08-03T21:13:02.595Z,22.82
2022-08-03T21:13:06.983Z,21.86
